Time;durP1;ratioP1;P1;durP2;ratioP2;P2;SDS_P1;SDS_P2;PMS_P1;PMS_P2;Temp;Humidity;BMP_temperature;BMP_pressure;BME280_temperature;BME280_humidity;BME280_pressure;Samples;Min_cycle;Max_cycle;Signal;HPM_P1;HPM_P2
2021/10/14 00:00:37;;;;;;;13.30;7.73;;;13.90;69.80;;;;;;5069431;28;20627;-84
2021/10/14 00:03:07;;;;;;;14.45;7.88;;;13.80;69.90;;;;;;5059424;28;20598;-84
2021/10/14 00:05:33;;;;;;;10.10;7.45;;;13.80;70.00;;;;;;5059790;28;20208;-83
2021/10/14 00:07:59;;;;;;;21.15;8.18;;;13.70;70.30;;;;;;5056197;28;20173;-83
2021/10/14 00:10:26;;;;;;;10.90;8.20;;;13.70;70.40;;;;;;5038537;28;20178;-83
2021/10/14 00:12:52;;;;;;;13.80;7.43;;;13.70;70.50;;;;;;5047875;28;20432;-84
2021/10/14 00:15:18;;;;;;;14.83;8.13;;;13.80;70.50;;;;;;5057058;28;20177;-84
2021/10/14 00:17:45;;;;;;;15.18;8.20;;;13.70;70.70;;;;;;5056771;28;20204;-84
2021/10/14 00:20:11;;;;;;;18.10;8.32;;;13.70;70.70;;;;;;5058056;28;20185;-84
2021/10/14 00:22:37;;;;;;;8.48;7.63;;;13.80;70.70;;;;;;5057232;28;20258;-84
2021/10/14 00:25:04;;;;;;;12.37;8.87;;;13.80;70.50;;;;;;5056653;28;20217;-84
2021/10/14 00:27:29;;;;;;;14.15;9.27;;;13.80;70.40;;;;;;5037671;28;20413;-83
2021/10/14 00:29:55;;;;;;;13.03;8.90;;;13.60;70.60;;;;;;5038232;28;20174;-83
2021/10/14 00:32:21;;;;;;;16.47;9.27;;;13.70;70.90;;;;;;5056580;28;20250;-84
2021/10/14 00:34:47;;;;;;;14.10;9.07;;;13.50;71.00;;;;;;5056662;28;20462;-83
2021/10/14 00:37:13;;;;;;;10.97;8.40;;;13.60;71.00;;;;;;5057235;28;20466;-84
2021/10/14 00:39:38;;;;;;;15.53;10.20;;;13.70;71.10;;;;;;5057870;28;20422;-84
2021/10/14 00:42:04;;;;;;;16.17;9.40;;;13.70;71.10;;;;;;5057779;28;20188;-83
2021/10/14 00:44:49;;;;;;;15.67;9.80;;;13.70;71.10;;;;;;5058272;28;20200;-83
2021/10/14 00:47:20;;;;;;;16.95;10.38;;;13.60;71.00;;;;;;5055783;28;20252;-83
2021/10/14 00:49:47;;;;;;;16.25;9.85;;;13.70;71.10;;;;;;5047165;28;20177;-83
2021/10/14 00:52:14;;;;;;;14.45;9.48;;;13.70;70.80;;;;;;5060013;28;20165;-83
2021/10/14 00:54:40;;;;;;;17.77;9.02;;;13.70;70.80;;;;;;5058439;28;20204;-83
2021/10/14 00:57:05;;;;;;;10.53;8.80;;;13.70;70.60;;;;;;5042157;28;20189;-83
2021/10/14 00:59:32;;;;;;;15.43;9.50;;;13.70;70.60;;;;;;5059995;28;20177;-83
2021/10/14 01:01:58;;;;;;;12.93;9.23;;;13.60;70.70;;;;;;5058206;28;20674;-83
2021/10/14 01:04:23;;;;;;;14.13;9.57;;;13.60;70.80;;;;;;5058699;28;20221;-83
2021/10/14 01:06:49;;;;;;;13.77;10.40;;;13.60;70.90;;;;;;5060627;28;20252;-83
2021/10/14 01:09:16;;;;;;;18.90;10.23;;;13.60;71.00;;;;;;5058936;28;20173;-84
2021/10/14 01:11:42;;;;;;;20.10;9.05;;;13.60;71.10;;;;;;5057227;28;20231;-84
2021/10/14 01:14:07;;;;;;;23.87;11.70;;;13.70;71.00;;;;;;5040742;28;20205;-83
2021/10/14 01:16:41;;;;;;;17.97;10.40;;;13.70;70.90;;;;;;5058206;28;20177;-83
2021/10/14 01:19:07;;;;;;;21.40;11.50;;;13.90;70.60;;;;;;5056532;28;20469;-84
2021/10/14 01:21:34;;;;;;;18.42;11.32;;;13.80;70.20;;;;;;5057538;28;20191;-84
2021/10/14 01:24:00;;;;;;;18.25;11.68;;;13.70;70.70;;;;;;5057168;28;20204;-84
2021/10/14 01:26:26;;;;;;;13.48;10.30;;;13.70;70.90;;;;;;5056413;28;20576;-84
2021/10/14 01:28:52;;;;;;;16.40;10.07;;;13.70;70.90;;;;;;5059331;28;20173;-84
2021/10/14 01:31:19;;;;;;;20.33;10.53;;;13.60;71.00;;;;;;5061094;28;20174;-84
2021/10/14 01:33:45;;;;;;;14.77;9.32;;;13.70;70.80;;;;;;5058275;28;20507;-83
2021/10/14 01:36:10;;;;;;;16.60;10.37;;;13.60;70.80;;;;;;5059105;28;20223;-83
2021/10/14 01:38:36;;;;;;;16.27;10.10;;;13.60;70.90;;;;;;5058034;28;20185;-84
2021/10/14 01:41:02;;;;;;;15.40;9.20;;;13.50;71.00;;;;;;5056415;28;20173;-83
2021/10/14 01:43:27;;;;;;;15.17;9.20;;;13.70;70.70;;;;;;5056544;28;20208;-83
2021/10/14 01:45:54;;;;;;;19.80;8.53;;;13.50;70.70;;;;;;5062364;28;20200;-83
2021/10/14 01:48:19;;;;;;;13.43;7.22;;;13.50;70.80;;;;;;5060855;28;20189;-84
2021/10/14 01:50:45;;;;;;;10.03;7.10;;;13.40;70.90;;;;;;5061910;28;20671;-84
2021/10/14 01:53:11;;;;;;;10.83;7.60;;;13.60;70.90;;;;;;5062562;28;20200;-83
2021/10/14 01:55:36;;;;;;;14.30;8.00;;;13.50;70.80;;;;;;5060815;28;20219;-83
2021/10/14 01:58:02;;;;;;;13.77;7.87;;;13.50;70.90;;;;;;5061779;28;20192;-83
2021/10/14 02:00:28;;;;;;;10.83;7.80;;;13.50;70.80;;;;;;5060779;28;20430;-84
2021/10/14 02:02:54;;;;;;;12.73;8.37;;;13.60;70.80;;;;;;5056055;28;20934;-84
2021/10/14 02:05:19;;;;;;;10.63;6.87;;;13.50;70.90;;;;;;5055288;28;20300;-84
2021/10/14 02:07:45;;;;;;;9.60;6.60;;;13.40;70.90;;;;;;5061015;28;20184;-83
2021/10/14 02:10:11;;;;;;;10.00;7.47;;;13.50;71.10;;;;;;5061356;28;20177;-83
2021/10/14 02:12:37;;;;;;;9.90;6.97;;;13.50;71.00;;;;;;5062503;28;20230;-83
2021/10/14 02:15:03;;;;;;;9.70;6.63;;;13.40;70.90;;;;;;5061880;28;20442;-83
2021/10/14 02:17:30;;;;;;;10.93;6.65;;;13.40;71.10;;;;;;5057604;28;20919;-84
2021/10/14 02:19:55;;;;;;;17.25;8.15;;;13.50;71.10;;;;;;5062497;28;20260;-83
2021/10/14 02:22:21;;;;;;;10.00;7.20;;;13.40;71.10;;;;;;5048556;28;20193;-83
2021/10/14 02:24:47;;;;;;;8.03;6.30;;;13.50;71.30;;;;;;5040597;28;20209;-83
2021/10/14 02:27:12;;;;;;;18.50;8.40;;;13.40;71.10;;;;;;5061809;28;20264;-83
2021/10/14 02:29:38;;;;;;;13.70;7.33;;;13.40;71.30;;;;;;5061336;28;20222;-83
2021/10/14 02:32:04;;;;;;;12.23;7.27;;;13.50;71.30;;;;;;5060328;28;20236;-84
2021/10/14 02:34:30;;;;;;;15.10;7.03;;;13.50;71.20;;;;;;5058267;28;20225;-83
2021/10/14 02:36:55;;;;;;;15.97;7.93;;;13.60;71.20;;;;;;5042161;28;20209;-83
2021/10/14 02:39:21;;;;;;;8.47;7.20;;;13.50;71.00;;;;;;5043388;28;20178;-83
2021/10/14 02:41:47;;;;;;;11.03;6.83;;;13.40;71.20;;;;;;5049401;28;20201;-82
2021/10/14 02:44:13;;;;;;;9.57;6.50;;;13.50;71.40;;;;;;5030237;28;20210;-82
2021/10/14 02:46:39;;;;;;;11.23;7.27;;;13.60;71.20;;;;;;5041461;28;20460;-83
2021/10/14 02:49:04;;;;;;;14.70;7.50;;;13.50;71.10;;;;;;5042213;28;20496;-82
2021/10/14 02:51:30;;;;;;;11.47;7.70;;;13.50;71.20;;;;;;5040569;28;20228;-82
2021/10/14 02:53:56;;;;;;;10.17;6.53;;;13.50;71.30;;;;;;5057407;28;20198;-82
2021/10/14 02:56:21;;;;;;;15.60;8.37;;;13.40;71.40;;;;;;5041947;28;20431;-82
2021/10/14 02:58:47;;;;;;;8.60;7.27;;;13.50;71.50;;;;;;5040492;28;20186;-82
2021/10/14 03:01:13;;;;;;;11.17;7.60;;;13.60;71.40;;;;;;5045796;28;20227;-82
2021/10/14 03:03:39;;;;;;;15.30;7.27;;;13.60;71.30;;;;;;5060919;28;20265;-83
2021/10/14 03:06:05;;;;;;;9.50;6.87;;;13.50;71.30;;;;;;5042651;28;20196;-83
2021/10/14 03:08:30;;;;;;;11.95;7.80;;;13.60;71.40;;;;;;5047928;28;20415;-83
2021/10/14 03:10:56;;;;;;;15.97;7.57;;;13.70;71.30;;;;;;5052021;28;20173;-82
2021/10/14 03:13:22;;;;;;;11.33;7.30;;;13.60;71.20;;;;;;5062268;28;20197;-83
2021/10/14 03:15:48;;;;;;;14.60;8.97;;;13.60;71.40;;;;;;5060883;28;20177;-83
2021/10/14 03:18:14;;;;;;;12.10;7.60;;;13.60;71.60;;;;;;5047647;28;20439;-83
2021/10/14 03:20:39;;;;;;;12.30;7.30;;;13.60;71.50;;;;;;5025877;28;20795;-83
2021/10/14 03:23:05;;;;;;;14.93;7.63;;;13.60;71.70;;;;;;5023389;28;20419;-83
2021/10/14 03:25:31;;;;;;;13.93;8.10;;;13.60;71.90;;;;;;5047795;28;20224;-83
2021/10/14 03:27:57;;;;;;;11.97;7.47;;;13.60;71.90;;;;;;5061373;28;20169;-84
2021/10/14 03:30:22;;;;;;;13.00;8.23;;;13.60;72.10;;;;;;5061347;28;20166;-84
2021/10/14 03:32:48;;;;;;;15.50;8.63;;;13.70;71.90;;;;;;5046592;28;20632;-84
2021/10/14 03:35:14;;;;;;;16.30;8.47;;;13.60;72.00;;;;;;5061390;28;20173;-84
2021/10/14 03:37:40;;;;;;;14.30;8.23;;;13.60;72.20;;;;;;5044358;28;20612;-84
2021/10/14 03:40:06;;;;;;;13.40;8.27;;;13.70;72.50;;;;;;5042920;28;20177;-83
2021/10/14 03:42:31;;;;;;;13.27;8.80;;;13.70;72.20;;;;;;5042566;28;20182;-84
2021/10/14 03:44:57;;;;;;;14.80;10.87;;;13.70;72.30;;;;;;5045835;28;20213;-84
2021/10/14 03:47:24;;;;;;;12.47;8.33;;;13.80;72.20;;;;;;5040317;28;20660;-83
2021/10/14 03:49:50;;;;;;;12.40;8.73;;;13.80;72.10;;;;;;5005930;28;20182;-84
2021/10/14 03:52:16;;;;;;;14.43;8.13;;;13.80;72.10;;;;;;5043211;28;20587;-83
2021/10/14 03:54:41;;;;;;;9.23;7.20;;;13.90;72.20;;;;;;5041556;28;20196;-84
2021/10/14 03:57:07;;;;;;;22.47;9.17;;;13.80;72.10;;;;;;5042554;28;20228;-84
2021/10/14 03:59:33;;;;;;;13.23;8.80;;;13.80;72.20;;;;;;5042425;28;20491;-84
2021/10/14 04:01:59;;;;;;;15.83;9.60;;;13.90;72.30;;;;;;5044782;28;20290;-83
2021/10/14 04:04:25;;;;;;;15.73;8.47;;;13.70;72.30;;;;;;5048270;28;20223;-83
2021/10/14 04:06:50;;;;;;;18.57;9.93;;;13.70;72.40;;;;;;5063811;28;20196;-83
2021/10/14 04:09:16;;;;;;;12.43;8.93;;;13.60;72.40;;;;;;5044760;28;20996;-83
2021/10/14 04:11:42;;;;;;;16.70;8.80;;;13.60;72.80;;;;;;5061373;28;20411;-83
2021/10/14 04:14:08;;;;;;;16.20;8.50;;;13.60;73.00;;;;;;5054357;28;20198;-84
2021/10/14 04:16:34;;;;;;;16.27;9.30;;;13.50;73.20;;;;;;5035568;28;20182;-84
2021/10/14 04:18:59;;;;;;;11.32;9.73;;;13.60;73.20;;;;;;5036215;28;20637;-84
2021/10/14 04:21:26;;;;;;;13.73;8.70;;;13.50;73.50;;;;;;5037142;28;20177;-83
2021/10/14 04:23:51;;;;;;;19.02;9.30;;;13.60;73.70;;;;;;5038372;28;20702;-83
2021/10/14 04:26:17;;;;;;;13.93;8.00;;;13.50;73.70;;;;;;5052860;28;20205;-83
2021/10/14 04:28:43;;;;;;;18.83;9.07;;;13.50;74.00;;;;;;5052696;28;20439;-83
2021/10/14 04:31:09;;;;;;;18.00;9.47;;;13.60;74.10;;;;;;5055120;28;20224;-83
2021/10/14 04:33:35;;;;;;;14.57;8.52;;;13.50;74.10;;;;;;5038823;28;20190;-83
2021/10/14 04:36:03;;;;;;;12.43;8.93;;;13.50;74.20;;;;;;5053443;28;20181;-83
2021/10/14 04:38:29;;;;;;;13.05;8.82;;;13.60;74.20;;;;;;5038359;28;20267;-83
2021/10/14 04:40:54;;;;;;;12.65;9.18;;;13.60;74.40;;;;;;5052578;28;20189;-83
2021/10/14 04:43:22;;;;;;;14.87;10.43;;;13.50;74.60;;;;;;5036464;28;20201;-83
2021/10/14 04:45:51;;;;;;;16.55;11.02;;;13.50;75.00;;;;;;5036161;28;20455;-83
2021/10/14 04:48:17;;;;;;;15.85;10.50;;;13.40;75.10;;;;;;5034441;28;20659;-83
2021/10/14 04:50:43;;;;;;;15.30;9.93;;;13.50;75.30;;;;;;5035640;28;20205;-83
2021/10/14 04:53:08;;;;;;;15.23;10.17;;;13.60;75.10;;;;;;5058103;28;20444;-83
2021/10/14 04:55:34;;;;;;;22.27;11.63;;;13.60;75.20;;;;;;5039273;28;20234;-83
2021/10/14 04:58:00;;;;;;;21.83;13.20;;;13.60;75.40;;;;;;5046266;28;20214;-82
2021/10/14 05:00:26;;;;;;;17.65;11.27;;;13.60;75.40;;;;;;5060419;28;20177;-83
2021/10/14 05:02:52;;;;;;;19.80;11.50;;;13.70;75.70;;;;;;5064473;28;20256;-84
2021/10/14 05:05:18;;;;;;;22.75;11.80;;;13.70;75.70;;;;;;5063993;28;20750;-84
2021/10/14 05:07:44;;;;;;;16.65;11.35;;;13.60;75.70;;;;;;5066893;28;20177;-84
2021/10/14 05:10:10;;;;;;;20.43;13.10;;;13.60;76.00;;;;;;5058892;28;20260;-84
2021/10/14 05:12:36;;;;;;;20.93;12.90;;;13.60;76.10;;;;;;5057674;28;20663;-84
2021/10/14 05:15:07;;;;;;;20.30;13.23;;;13.60;76.30;;;;;;5059289;28;20526;-84
2021/10/14 05:17:33;;;;;;;17.98;12.00;;;13.60;76.60;;;;;;5060515;28;20562;-84
2021/10/14 05:20:00;;;;;;;21.00;13.20;;;13.60;77.40;;;;;;5060953;28;20268;-84
2021/10/14 05:22:26;;;;;;;20.08;11.27;;;13.60;76.80;;;;;;5061827;28;20726;-84
2021/10/14 05:24:51;;;;;;;26.17;13.70;;;13.70;76.70;;;;;;5072791;28;20197;-85
2021/10/14 05:27:17;;;;;;;21.40;13.10;;;13.60;76.80;;;;;;5058930;28;20520;-85
2021/10/14 05:29:43;;;;;;;23.57;12.63;;;13.70;76.80;;;;;;5057892;28;20177;-85
2021/10/14 05:32:09;;;;;;;23.33;12.70;;;13.60;76.60;;;;;;5058543;28;20177;-83
2021/10/14 05:34:35;;;;;;;20.23;14.53;;;13.70;76.80;;;;;;5053955;28;20631;-84
2021/10/14 05:37:01;;;;;;;24.25;14.40;;;13.70;76.90;;;;;;5054416;28;20177;-84
2021/10/14 05:39:26;;;;;;;26.70;13.33;;;13.60;77.00;;;;;;5057179;28;20191;-83
2021/10/14 05:41:52;;;;;;;23.27;14.20;;;13.70;77.20;;;;;;5059370;28;20192;-84
2021/10/14 05:44:18;;;;;;;21.00;13.27;;;13.70;77.20;;;;;;5037350;28;20689;-84
2021/10/14 05:46:44;;;;;;;22.53;14.30;;;13.70;77.10;;;;;;5038104;28;20205;-84
2021/10/14 05:49:10;;;;;;;26.77;15.00;;;13.70;77.10;;;;;;5045219;28;20173;-84
2021/10/14 05:51:36;;;;;;;27.07;14.70;;;13.90;77.00;;;;;;5053927;28;20244;-84
2021/10/14 05:54:02;;;;;;;25.10;13.93;;;14.00;76.70;;;;;;5053558;28;20206;-84
2021/10/14 05:56:28;;;;;;;27.73;14.18;;;13.90;76.70;;;;;;5037826;28;20186;-83
2021/10/14 05:58:54;;;;;;;23.70;13.83;;;13.90;76.70;;;;;;5051641;28;20558;-84
2021/10/14 06:01:20;;;;;;;24.47;15.40;;;13.70;76.90;;;;;;5059932;28;20193;-83
2021/10/14 06:03:46;;;;;;;25.25;12.85;;;13.70;77.20;;;;;;5064042;28;20448;-84
2021/10/14 06:06:12;;;;;;;23.55;14.98;;;13.80;77.50;;;;;;5055387;28;20702;-84
2021/10/14 06:08:38;;;;;;;21.50;14.82;;;13.80;77.40;;;;;;5028992;28;20182;-84
2021/10/14 06:11:03;;;;;;;27.50;15.00;;;13.90;77.10;;;;;;5037987;28;20269;-83
2021/10/14 06:13:29;;;;;;;22.83;14.73;;;13.90;77.20;;;;;;5038734;28;20189;-84
2021/10/14 06:15:55;;;;;;;29.63;15.93;;;13.80;77.20;;;;;;5040980;28;20212;-84
2021/10/14 06:18:21;;;;;;;24.90;14.00;;;13.80;77.40;;;;;;5045206;28;20216;-84
2021/10/14 06:20:47;;;;;;;25.93;15.40;;;13.70;77.60;;;;;;5048970;28;20984;-84
2021/10/14 06:23:13;;;;;;;24.90;14.70;;;14.00;77.70;;;;;;5066482;28;20463;-83
2021/10/14 06:25:38;;;;;;;20.10;13.67;;;13.80;77.30;;;;;;5062389;28;20459;-84
2021/10/14 06:28:05;;;;;;;29.87;17.10;;;14.00;77.60;;;;;;5043261;28;20412;-84
2021/10/14 06:30:32;;;;;;;26.80;15.23;;;13.90;77.40;;;;;;5050076;28;20426;-84
2021/10/14 06:32:58;;;;;;;22.90;14.63;;;13.80;77.50;;;;;;5052565;28;20182;-84
2021/10/14 06:35:24;;;;;;;24.27;14.57;;;13.70;77.90;;;;;;5028496;28;20189;-85
2021/10/14 06:37:50;;;;;;;22.95;13.88;;;13.80;78.00;;;;;;5044506;28;20181;-84
2021/10/14 06:40:16;;;;;;;22.80;15.17;;;13.70;78.20;;;;;;5043804;28;20640;-84
2021/10/14 06:42:42;;;;;;;24.40;16.00;;;13.70;78.40;;;;;;5042359;28;20450;-84
2021/10/14 06:45:08;;;;;;;22.17;13.90;;;13.70;78.60;;;;;;5041138;28;20459;-85
2021/10/14 06:47:37;;;;;;;22.60;14.02;;;13.70;78.70;;;;;;5041986;28;20444;-84
2021/10/14 06:50:06;;;;;;;22.65;13.70;;;13.90;78.40;;;;;;5041637;28;20655;-84
2021/10/14 06:52:32;;;;;;;31.90;15.05;;;14.10;77.90;;;;;;5059590;28;20188;-85
2021/10/14 06:54:58;;;;;;;25.27;15.07;;;13.90;77.80;;;;;;5059853;28;20204;-85
2021/10/14 06:57:25;;;;;;;26.43;14.27;;;13.90;78.10;;;;;;5042353;28;20173;-84
2021/10/14 06:59:51;;;;;;;25.75;14.10;;;14.00;78.00;;;;;;5051945;28;20456;-84
2021/10/14 07:02:17;;;;;;;22.65;13.38;;;13.90;78.10;;;;;;5079606;28;20177;-84
2021/10/14 07:04:43;;;;;;;24.13;13.53;;;14.00;78.10;;;;;;5069058;28;20230;-83
2021/10/14 07:07:09;;;;;;;21.70;14.53;;;14.10;78.00;;;;;;5080183;28;20265;-83
2021/10/14 07:09:35;;;;;;;23.35;13.50;;;14.10;77.90;;;;;;5079721;28;20169;-83
2021/10/14 07:12:08;;;;;;;24.03;12.77;;;14.30;77.70;;;;;;5079916;28;20177;-84
2021/10/14 07:14:34;;;;;;;24.15;14.35;;;14.30;77.30;;;;;;5065428;28;20284;-85
2021/10/14 07:16:59;;;;;;;27.50;15.50;;;14.30;77.20;;;;;;5060144;28;20262;-84
2021/10/14 07:19:25;;;;;;;24.33;13.77;;;14.20;77.00;;;;;;5059104;28;20169;-84
2021/10/14 07:21:51;;;;;;;21.00;14.40;;;14.10;77.10;;;;;;5058018;28;20180;-84
2021/10/14 07:24:19;;;;;;;25.43;15.00;;;14.20;77.10;;;;;;5056453;28;20219;-84
2021/10/14 07:26:45;;;;;;;32.15;13.43;;;14.20;77.10;;;;;;5057049;28;20207;-84
2021/10/14 07:29:11;;;;;;;25.98;14.73;;;14.30;77.10;;;;;;5056982;28;20260;-84
2021/10/14 07:31:37;;;;;;;26.45;14.13;;;14.40;76.80;;;;;;5058722;28;20181;-85
2021/10/14 07:34:03;;;;;;;22.67;14.02;;;14.50;76.50;;;;;;5057199;28;20562;-84
2021/10/14 07:36:29;;;;;;;20.57;14.20;;;14.30;76.40;;;;;;5040788;28;20188;-84
2021/10/14 07:38:54;;;;;;;16.90;12.90;;;14.30;76.50;;;;;;5057043;28;20408;-85
2021/10/14 07:41:20;;;;;;;26.00;13.73;;;14.30;76.60;;;;;;5058034;28;20207;-85
2021/10/14 07:43:46;;;;;;;27.40;14.90;;;14.20;76.70;;;;;;5055713;28;20519;-85
2021/10/14 07:46:12;;;;;;;21.80;15.00;;;14.10;77.10;;;;;;5056804;28;20208;-84
2021/10/14 07:48:38;;;;;;;25.33;15.63;;;14.30;77.20;;;;;;5058282;28;20419;-85
2021/10/14 07:51:04;;;;;;;28.13;16.30;;;14.40;76.80;;;;;;5056443;28;20201;-85
2021/10/14 07:53:30;;;;;;;29.15;16.20;;;14.40;76.70;;;;;;5054446;28;20471;-84
2021/10/14 07:55:56;;;;;;;22.90;15.67;;;14.40;76.70;;;;;;5056681;28;20243;-85
2021/10/14 07:58:22;;;;;;;27.42;15.95;;;14.40;76.80;;;;;;5059220;28;20454;-84
2021/10/14 08:00:48;;;;;;;21.23;14.03;;;14.40;76.70;;;;;;5058016;28;20212;-84
2021/10/14 08:03:13;;;;;;;21.93;15.00;;;14.50;76.80;;;;;;5057229;28;20197;-85
2021/10/14 08:05:40;;;;;;;22.85;14.32;;;14.60;76.10;;;;;;5057105;28;20471;-85
2021/10/14 08:08:05;;;;;;;24.40;13.80;;;14.70;75.80;;;;;;5056470;28;20231;-85
2021/10/14 08:10:33;;;;;;;21.83;14.63;;;14.70;75.80;;;;;;5056848;28;20420;-84
2021/10/14 08:12:58;;;;;;;30.95;16.98;;;14.90;75.40;;;;;;5056527;28;20191;-84
2021/10/14 08:15:25;;;;;;;19.70;14.70;;;14.90;75.10;;;;;;5056234;28;20186;-85
2021/10/14 08:17:51;;;;;;;33.10;17.27;;;15.00;74.90;;;;;;5055256;28;20420;-85
2021/10/14 08:20:17;;;;;;;19.80;13.47;;;15.00;74.80;;;;;;5054136;28;20194;-84
2021/10/14 08:22:43;;;;;;;22.13;14.32;;;15.00;74.80;;;;;;5055158;28;20483;-84
2021/10/14 08:25:12;;;;;;;19.73;12.93;;;14.90;74.70;;;;;;5055579;28;20609;-84
2021/10/14 08:27:39;;;;;;;20.40;15.50;;;15.10;74.70;;;;;;5054264;28;20419;-85
2021/10/14 08:30:06;;;;;;;22.67;14.00;;;15.20;74.40;;;;;;5054431;28;20173;-84
2021/10/14 08:32:33;;;;;;;30.95;15.32;;;15.30;74.30;;;;;;5054381;28;20189;-84
2021/10/14 08:34:59;;;;;;;26.30;14.15;;;15.40;73.60;;;;;;5053815;28;20197;-85
2021/10/14 08:37:24;;;;;;;32.33;16.15;;;15.50;73.20;;;;;;5054058;28;20215;-85
2021/10/14 08:39:52;;;;;;;21.97;14.00;;;15.50;73.20;;;;;;5054719;28;20267;-85
2021/10/14 08:42:18;;;;;;;21.50;14.15;;;15.30;73.30;;;;;;5055845;28;20502;-85
2021/10/14 08:44:44;;;;;;;19.95;12.35;;;15.30;73.50;;;;;;5054627;28;20205;-85
2021/10/14 08:47:12;;;;;;;23.25;13.45;;;15.40;73.40;;;;;;5054702;28;20181;-85
2021/10/14 08:49:45;;;;;;;19.15;14.18;;;15.60;73.50;;;;;;5054775;28;20547;-84
2021/10/14 08:52:12;;;;;;;48.80;16.35;;;15.50;73.30;;;;;;5054564;28;20240;-85
2021/10/14 08:54:38;;;;;;;18.10;12.40;;;15.60;73.20;;;;;;5054609;28;20246;-84
2021/10/14 08:57:04;;;;;;;21.25;14.10;;;15.50;73.40;;;;;;5055900;28;20166;-84
2021/10/14 08:59:30;;;;;;;18.97;12.30;;;15.70;73.40;;;;;;5056262;28;20173;-85
2021/10/14 09:02:08;;;;;;;18.10;11.80;;;15.70;72.70;;;;;;5054289;28;20173;-84
2021/10/14 09:04:41;;;;;;;18.25;11.60;;;15.60;72.70;;;;;;5034875;28;20229;-84
2021/10/14 09:07:12;;;;;;;21.27;13.85;;;15.70;72.70;;;;;;5035895;28;20177;-84
2021/10/14 09:09:39;;;;;;;20.98;12.57;;;16.00;71.90;;;;;;5035909;28;20636;-84
2021/10/14 09:12:06;;;;;;;18.88;12.35;;;16.10;72.50;;;;;;5040568;28;20181;-84
2021/10/14 09:14:32;;;;;;;16.83;11.90;;;16.10;71.70;;;;;;5056289;28;20755;-84
2021/10/14 09:16:57;;;;;;;18.10;11.80;;;16.20;71.30;;;;;;5056061;28;20212;-84
2021/10/14 09:19:25;;;;;;;18.30;11.30;;;16.00;71.20;;;;;;5055613;28;20323;-85
2021/10/14 09:21:56;;;;;;;21.33;11.50;;;16.10;71.40;;;;;;5057198;28;20181;-84
2021/10/14 09:24:35;;;;;;;21.63;13.20;;;16.10;71.40;;;;;;5055870;28;20204;-84
2021/10/14 09:27:04;;;;;;;18.58;12.93;;;16.30;70.90;;;;;;5055995;28;20181;-85
2021/10/14 09:29:33;;;;;;;19.90;11.63;;;16.40;70.40;;;;;;5056825;28;20173;-85
2021/10/14 09:32:00;;;;;;;19.58;13.20;;;16.40;70.30;;;;;;5055070;28;20181;-84
2021/10/14 09:34:31;;;;;;;16.67;12.43;;;16.40;70.10;;;;;;5054555;28;20213;-85
2021/10/14 09:37:00;;;;;;;16.90;12.10;;;16.50;70.20;;;;;;5055295;28;20209;-85
2021/10/14 09:39:26;;;;;;;14.35;10.65;;;16.50;69.80;;;;;;5054784;28;20189;-84
2021/10/14 09:41:52;;;;;;;17.88;11.25;;;16.40;69.60;;;;;;5055699;28;20251;-84
2021/10/14 09:44:20;;;;;;;21.40;11.52;;;16.40;70.00;;;;;;5054317;28;20208;-85
2021/10/14 09:46:48;;;;;;;20.10;11.95;;;16.30;70.10;;;;;;5054593;28;20197;-85
2021/10/14 09:49:19;;;;;;;18.90;11.60;;;16.40;70.20;;;;;;5057910;28;20201;-84
2021/10/14 09:51:45;;;;;;;18.85;11.70;;;16.40;70.30;;;;;;5059255;28;20173;-84
2021/10/14 09:54:12;;;;;;;16.35;11.00;;;16.40;70.10;;;;;;5057900;28;20201;-85
2021/10/14 09:56:38;;;;;;;20.38;12.95;;;16.30;70.40;;;;;;5059262;28;20182;-84
2021/10/14 09:59:04;;;;;;;23.17;11.82;;;16.30;70.50;;;;;;5059378;28;20192;-84
2021/10/14 10:01:33;;;;;;;17.20;11.03;;;16.20;70.80;;;;;;5059514;28;20177;-84
2021/10/14 10:04:01;;;;;;;22.77;11.57;;;16.20;71.00;;;;;;5058420;28;20451;-85
2021/10/14 10:06:29;;;;;;;18.13;12.10;;;16.20;71.00;;;;;;5058870;28;20565;-85
2021/10/14 10:08:59;;;;;;;18.02;10.80;;;16.30;71.20;;;;;;5057602;28;20185;-85
2021/10/14 10:11:27;;;;;;;16.65;10.95;;;16.20;71.30;;;;;;5058143;28;20206;-85
2021/10/14 10:13:55;;;;;;;14.27;10.30;;;16.20;71.40;;;;;;5057871;28;20706;-85
2021/10/14 10:16:24;;;;;;;20.15;11.10;;;16.30;71.60;;;;;;5057450;28;20644;-85
2021/10/14 10:18:51;;;;;;;16.52;11.90;;;16.30;71.20;;;;;;5058326;28;20176;-85
2021/10/14 10:21:32;;;;;;;20.33;11.27;;;16.40;71.00;;;;;;5058651;28;20185;-85
2021/10/14 10:24:06;;;;;;;15.05;9.55;;;16.30;70.70;;;;;;5057375;28;20197;-84
2021/10/14 10:26:35;;;;;;;16.90;10.63;;;16.30;70.90;;;;;;5060203;28;20208;-84
2021/10/14 10:29:23;;;;;;;17.92;10.55;;;16.50;70.60;;;;;;5059067;28;20173;-85
2021/10/14 10:31:51;;;;;;;16.17;9.85;;;16.50;70.60;;;;;;5059083;28;20180;-84
2021/10/14 10:37:25;;;;;;;16.70;10.43;;;16.60;70.10;;;;;;5058042;28;20185;-85
2021/10/14 10:39:56;;;;;;;17.08;10.00;;;16.60;69.80;;;;;;5058809;28;20188;-85
2021/10/14 10:42:24;;;;;;;14.63;10.95;;;16.50;70.40;;;;;;5062049;28;20682;-85
2021/10/14 10:44:50;;;;;;;16.70;10.43;;;16.50;70.50;;;;;;5063696;28;20256;-85
2021/10/14 10:47:41;;;;;;;18.88;10.40;;;16.70;70.70;;;;;;5062394;28;20173;-86
2021/10/14 10:50:13;;;;;;;14.65;10.05;;;17.00;69.70;;;;;;5062815;28;20165;-85
2021/10/14 10:52:43;;;;;;;13.55;9.52;;;17.10;69.30;;;;;;5061384;28;20177;-84
2021/10/14 10:55:33;;;;;;;15.75;9.15;;;17.30;68.20;;;;;;5042745;28;20330;-84
2021/10/14 10:58:00;;;;;;;18.83;9.52;;;17.40;67.80;;;;;;5050853;28;20192;-86
2021/10/14 11:00:26;;;;;;;17.30;9.85;;;17.40;67.70;;;;;;5056060;28;20273;-86
2021/10/14 11:03:12;;;;;;;19.30;10.27;;;17.40;67.70;;;;;;5041403;28;20280;-86
2021/10/14 11:05:53;;;;;;;13.68;10.30;;;17.70;67.50;;;;;;5059390;28;20582;-87
2021/10/14 11:08:32;;;;;;;14.90;9.38;;;17.80;66.40;;;;;;5048468;28;20173;-87
2021/10/14 11:11:08;;;;;;;13.75;9.95;;;17.80;66.30;;;;;;5045868;28;20198;-88
2021/10/14 11:13:36;;;;;;;15.50;9.82;;;17.80;66.80;;;;;;5043364;28;20220;-86
2021/10/14 11:16:06;;;;;;;14.32;8.38;;;17.80;67.00;;;;;;5026415;28;20190;-87
2021/10/14 11:18:34;;;;;;;15.73;10.27;;;17.80;66.50;;;;;;5051072;28;20645;-87
2021/10/14 11:21:02;;;;;;;18.95;10.15;;;18.00;66.50;;;;;;5055126;28;20324;-86
2021/10/14 11:23:31;;;;;;;14.93;10.73;;;17.80;66.80;;;;;;5039246;28;20202;-86
2021/10/14 11:26:34;;;;;;;16.20;9.52;;;18.00;66.50;;;;;;5042346;28;22244;-86
2021/10/14 11:29:07;;;;;;;17.55;10.10;;;18.10;66.30;;;;;;5071339;28;20192;-85
2021/10/14 11:31:48;;;;;;;14.27;9.57;;;18.10;65.90;;;;;;5056202;28;20177;-84
2021/10/14 11:34:17;;;;;;;15.55;10.60;;;18.20;65.80;;;;;;5056090;28;20196;-84
2021/10/14 11:36:57;;;;;;;14.15;9.65;;;18.00;66.00;;;;;;5057462;28;20577;-84
2021/10/14 11:39:43;;;;;;;14.82;9.55;;;18.00;66.50;;;;;;5059020;28;20161;-84
2021/10/14 11:42:10;;;;;;;15.18;8.52;;;18.10;66.50;;;;;;5059009;28;20189;-83
2021/10/14 11:44:38;;;;;;;16.70;8.68;;;18.20;66.40;;;;;;5062065;28;20537;-83
2021/10/14 11:47:07;;;;;;;21.70;8.93;;;18.40;65.40;;;;;;5061030;28;20307;-85
2021/10/14 11:49:33;;;;;;;18.83;9.43;;;18.40;65.00;;;;;;5062612;28;20773;-84
2021/10/14 11:52:09;;;;;;;12.35;9.45;;;18.10;65.30;;;;;;5059056;28;20174;-84
2021/10/14 11:54:36;;;;;;;12.98;9.30;;;18.10;66.10;;;;;;5041245;28;20232;-84
2021/10/14 11:57:04;;;;;;;12.77;8.00;;;18.00;66.00;;;;;;5042024;28;20185;-84
2021/10/14 11:59:30;;;;;;;9.80;8.07;;;18.10;66.10;;;;;;5041065;28;20185;-84
2021/10/14 12:02:08;;;;;;;10.45;8.25;;;18.10;65.60;;;;;;5040335;28;20186;-83
2021/10/14 12:04:35;;;;;;;14.50;7.95;;;17.90;65.50;;;;;;5040281;28;20217;-83
2021/10/14 12:07:01;;;;;;;13.48;8.02;;;17.90;65.90;;;;;;5039688;28;20206;-84
2021/10/14 12:09:27;;;;;;;12.80;8.45;;;18.20;64.80;;;;;;5039880;28;20269;-84
2021/10/14 12:11:58;;;;;;;15.05;9.10;;;18.30;64.20;;;;;;5052310;28;20194;-85
2021/10/14 12:14:25;;;;;;;13.10;8.10;;;18.20;64.20;;;;;;5038843;28;20193;-84
2021/10/14 12:17:13;;;;;;;12.90;7.68;;;18.10;64.80;;;;;;5058221;28;20556;-84
2021/10/14 12:19:47;;;;;;;14.82;8.35;;;18.20;64.90;;;;;;5039926;28;20181;-83
2021/10/14 12:22:18;;;;;;;10.75;8.43;;;18.10;65.20;;;;;;5040107;28;20279;-83
2021/10/14 12:25:03;;;;;;;10.60;7.60;;;18.20;65.30;;;;;;5039467;28;20201;-83
2021/10/14 12:27:47;;;;;;;10.02;7.60;;;18.20;65.40;;;;;;5038791;28;20178;-83
2021/10/14 12:30:21;;;;;;;9.95;7.70;;;17.90;65.50;;;;;;5039898;28;20636;-83
2021/10/14 12:32:47;;;;;;;12.57;7.40;;;17.70;66.20;;;;;;5039688;28;20180;-83
2021/10/14 12:35:14;;;;;;;11.65;7.32;;;17.70;66.60;;;;;;5039697;28;20193;-83